CheckWX is a tool to help pilots better visualize weather data.  It is not intended as a substitute for an official pre-flight weather briefing.

07:13:29 UTC

KGWW METAR
Wayne Executive Jetport Airport
Goldsboro, North Carolina, USA
Current

18 mins ago

KGWW 230655Z AUTO 22004KT 10SM CLR 18/17 A3010 RMK AO2 T01760173
Observed
Sep-23 @ 06:55 UTC
Wind
  • 220° at 4 KTS
Visibility
10 SM
Flight Rules
VFR
Cloud Levels
  • Clear skies
Temperature
18°C / 64°F
Dewpoint
17°C / 63°F
Humidity
94%
Altimeter
30.1" Hg
Pressure
1019.32 hPa
Previous

38 mins ago

KGWW 230635Z AUTO 21004KT 10SM CLR 18/18 A3011 RMK AO2 T01800175
Observed
Sep-23 @ 06:35 UTC
Wind
  • 210° at 4 KTS
Visibility
10 SM
Flight Rules
VFR
Cloud Levels
  • Clear skies
Temperature
18°C / 64°F
Dewpoint
18°C / 64°F
Humidity
100%
Altimeter
30.11" Hg
Pressure
1019.62 hPa
Previous

58 mins ago

KGWW 230615Z AUTO 19004KT 10SM CLR 18/17 A3011 RMK AO2 T01750172
Observed
Sep-23 @ 06:15 UTC
Wind
  • 190° at 4 KTS
Visibility
10 SM
Flight Rules
VFR
Cloud Levels
  • Clear skies
Temperature
18°C / 64°F
Dewpoint
17°C / 63°F
Humidity
94%
Altimeter
30.11" Hg
Pressure
1019.62 hPa